Time;durP1;ratioP1;P1;durP2;ratioP2;P2;SDS_P1;SDS_P2;PMS_P1;PMS_P2;Temp;Humidity;BMP_temperature;BMP_pressure;BME280_temperature;BME280_humidity;BME280_pressure;Samples;Min_cycle;Max_cycle;Signal;HPM_P1;HPM_P2
2021/07/11 00:01:28;;;;;;;9.73;7.60;;;;;;;20.23;60.02;99157.45;262832;1096;114916;-58
2021/07/11 00:06:37;;;;;;;10.43;7.63;;;;;;;20.21;60.11;99156.75;262625;1096;114807;-58
2021/07/11 00:11:41;;;;;;;10.03;8.37;;;;;;;20.19;60.71;99156.06;262729;1096;115022;-59
2021/07/11 00:16:45;;;;;;;9.30;7.43;;;;;;;20.16;60.51;99151.81;262767;1095;114773;-58
2021/07/11 00:21:50;;;;;;;9.45;8.45;;;;;;;20.12;60.53;99150.42;262793;1095;114994;-58
2021/07/11 00:26:54;;;;;;;11.48;8.10;;;;;;;20.08;60.59;99147.19;262743;1095;114466;-58
2021/07/11 00:31:58;;;;;;;9.98;7.60;;;;;;;20.05;60.55;99147.48;262664;1096;115263;-59
2021/07/11 00:37:02;;;;;;;8.93;7.23;;;;;;;20.03;60.76;99154.88;262842;1095;115137;-60
2021/07/11 00:42:12;;;;;;;12.70;8.45;;;;;;;20.01;61.01;99156.91;262580;1096;115318;-58
2021/07/11 00:47:16;;;;;;;9.60;8.43;;;;;;;20.00;61.16;99151.64;262617;1095;114604;-59
2021/07/11 00:52:20;;;;;;;12.28;9.05;;;;;;;19.96;61.15;99161.90;262705;1095;114783;-58
2021/07/11 00:57:24;;;;;;;12.05;9.20;;;;;;;19.93;61.37;99147.84;262681;1096;115432;-57
2021/07/11 01:02:49;;;;;;;13.20;10.08;;;;;;;19.90;61.51;99148.99;262877;1096;115222;-59
2021/07/11 01:08:13;;;;;;;15.93;9.60;;;;;;;19.85;61.51;99151.31;262772;1095;114837;-59
2021/07/11 01:13:21;;;;;;;8.93;7.95;;;;;;;19.84;61.85;99155.88;262761;1096;115436;-59
2021/07/11 01:18:30;;;;;;;10.23;7.80;;;;;;;19.91;62.17;99152.57;262772;1095;115653;-59
2021/07/11 01:23:55;;;;;;;10.77;8.30;;;;;;;19.98;62.39;99146.40;262554;1095;115603;-56
2021/07/11 01:29:00;;;;;;;9.20;8.27;;;;;;;20.04;62.33;99145.80;262614;1095;114715;-59
2021/07/11 01:34:07;;;;;;;11.40;8.50;;;;;;;20.08;62.85;99147.19;262653;1096;115386;-59
2021/07/11 01:39:11;;;;;;;10.30;8.60;;;;;;;20.12;62.02;99144.18;262604;1095;115693;-59
2021/07/11 01:44:20;;;;;;;12.95;9.23;;;;;;;20.12;62.16;99149.58;263007;1095;114885;-58
2021/07/11 01:49:24;;;;;;;8.93;7.70;;;;;;;20.13;62.26;99149.41;262632;1096;114841;-59
2021/07/11 01:54:30;;;;;;;9.27;7.20;;;;;;;20.18;62.50;99144.41;262685;1096;115137;-58
2021/07/11 01:59:34;;;;;;;10.90;8.50;;;;;;;20.24;62.43;99141.07;262753;1095;114769;-58
2021/07/11 02:04:52;;;;;;;11.10;8.80;;;;;;;20.25;62.42;99139.24;262747;1095;115028;-59
2021/07/11 02:09:57;;;;;;;;;;;;;;;20.25;62.42;99141.95;262783;1096;115849;-58
2021/07/11 02:15:06;;;;;;;10.00;8.25;;;;;;;20.17;62.35;99141.84;262753;1096;101819;-59
2021/07/11 02:20:11;;;;;;;9.83;8.50;;;;;;;20.12;62.49;99144.18;262626;1095;115509;-59
2021/07/11 02:25:20;;;;;;;11.87;7.17;;;;;;;20.08;62.55;99141.78;262760;1095;115546;-60
2021/07/11 02:30:40;;;;;;;9.63;7.80;;;;;;;20.08;62.74;99143.63;262667;1095;114918;-59
2021/07/11 02:35:47;;;;;;;8.85;7.95;;;;;;;20.06;62.39;99141.07;262590;1095;114811;-58
2021/07/11 02:40:51;;;;;;;10.17;8.13;;;;;;;20.08;62.61;99136.38;262787;1095;115228;-59
2021/07/11 02:45:56;;;;;;;10.53;9.20;;;;;;;20.08;62.69;99138.23;262596;1095;115436;-59
2021/07/11 02:51:01;;;;;;;11.07;9.17;;;;;;;19.99;62.38;99131.88;262694;1095;115365;-58
2021/07/11 02:56:11;;;;;;;10.60;8.77;;;;;;;19.92;62.90;99138.90;262559;1096;115296;-58
2021/07/11 03:01:17;;;;;;;8.47;7.37;;;;;;;19.83;62.98;99140.64;262760;1095;115809;-58
2021/07/11 03:06:24;;;;;;;12.23;7.60;;;;;;;19.83;62.94;99145.20;262731;1096;114621;-58
2021/07/11 03:11:31;;;;;;;9.15;8.18;;;;;;;19.85;63.23;99143.21;262674;1095;114672;-60
2021/07/11 03:16:43;;;;;;;9.55;8.40;;;;;;;19.84;63.25;99145.07;262455;1095;115008;-59
2021/07/11 03:21:50;;;;;;;10.13;8.77;;;;;;;19.82;63.08;99144.36;262679;1095;115143;-57
2021/07/11 03:26:56;;;;;;;10.60;8.83;;;;;;;19.78;63.41;99139.42;262775;1096;115176;-58
2021/07/11 03:32:00;;;;;;;9.93;7.50;;;;;;;19.75;62.99;99142.42;262638;1096;115113;-58
2021/07/11 03:37:10;;;;;;;9.58;7.55;;;;;;;19.76;63.47;99136.85;262713;1096;114716;-57
2021/07/11 03:42:19;;;;;;;12.95;8.50;;;;;;;19.81;63.60;99137.27;262667;1095;115094;-58
2021/07/11 03:47:25;;;;;;;9.90;8.90;;;;;;;19.85;63.87;99141.36;262641;1095;115499;-59
2021/07/11 03:52:31;;;;;;;10.28;9.03;;;;;;;19.88;63.80;99142.06;262781;1095;115401;-60
2021/07/11 03:57:36;;;;;;;10.23;9.13;;;;;;;19.90;63.78;99131.94;262757;1095;115102;-58
2021/07/11 04:02:41;;;;;;;9.37;7.30;;;;;;;19.91;63.64;99139.06;262652;1096;115509;-58
2021/07/11 04:07:47;;;;;;;9.80;7.73;;;;;;;19.96;64.25;99134.88;262584;1095;114877;-60
2021/07/11 04:12:53;;;;;;;11.63;8.70;;;;;;;20.05;64.22;99136.67;261873;1095;114710;-59
2021/07/11 04:18:06;;;;;;;9.63;8.47;;;;;;;20.10;63.96;99130.80;261751;1095;114776;-60
2021/07/11 04:23:13;;;;;;;11.17;9.03;;;;;;;20.12;63.84;99133.38;261639;1095;114386;-59
2021/07/11 04:28:17;;;;;;;12.70;9.93;;;;;;;20.08;63.79;99133.67;262728;1095;114677;-59
2021/07/11 04:33:21;;;;;;;11.20;7.95;;;;;;;20.08;63.77;99132.83;262676;1096;115294;-59
2021/07/11 04:38:25;;;;;;;11.73;7.90;;;;;;;20.10;64.03;99125.40;262785;1095;115347;-59
2021/07/11 04:43:29;;;;;;;10.65;9.55;;;;;;;20.17;64.02;99121.08;262664;1095;114776;-59
2021/07/11 04:48:33;;;;;;;11.28;9.20;;;;;;;20.25;64.05;99113.06;262576;1095;115614;-60
2021/07/11 04:53:36;;;;;;;11.53;9.70;;;;;;;20.36;64.16;99111.97;262998;1095;115630;-59
2021/07/11 04:58:40;;;;;;;10.55;9.28;;;;;;;20.45;64.26;99118.31;262693;1095;114824;-59
2021/07/11 05:03:44;;;;;;;10.13;8.95;;;;;;;20.52;64.19;99112.14;263010;1096;114609;-59
2021/07/11 05:08:49;;;;;;;14.40;9.35;;;;;;;20.61;64.07;99117.60;261699;1096;114848;-59
2021/07/11 05:13:52;;;;;;;;;;;;;;;20.70;63.90;99119.38;262486;1095;115045;-57
2021/07/11 05:18:56;;;;;;;11.90;9.70;;;;;;;20.75;64.11;99104.38;262488;1096;102968;-60
2021/07/11 05:24:00;;;;;;;11.05;9.85;;;;;;;20.81;63.82;99102.88;262890;1096;115394;-58
2021/07/11 05:29:04;;;;;;;13.00;10.55;;;;;;;20.83;63.64;99110.84;262783;1095;115195;-58
2021/07/11 05:34:09;;;;;;;10.95;9.08;;;;;;;20.84;63.44;99101.72;262737;1095;114685;-58
2021/07/11 05:39:14;;;;;;;10.38;8.03;;;;;;;20.91;63.60;99102.77;261725;1095;115331;-57
2021/07/11 05:44:18;;;;;;;10.13;8.03;;;;;;;20.99;63.48;99111.80;262710;1096;115137;-59
2021/07/11 05:49:22;;;;;;;9.78;8.78;;;;;;;21.05;63.37;99115.70;261787;1095;114657;-59
2021/07/11 05:54:26;;;;;;;9.43;8.53;;;;;;;21.12;63.30;99114.05;262771;1096;115863;-58
2021/07/11 05:59:31;;;;;;;10.30;8.83;;;;;;;21.16;63.16;99106.45;262674;1095;115007;-58
2021/07/11 06:04:34;;;;;;;13.13;8.83;;;;;;;21.18;63.36;99102.59;262602;1096;114867;-57
2021/07/11 06:09:38;;;;;;;9.18;8.20;;;;;;;21.22;63.23;99106.66;262586;1096;115495;-59
2021/07/11 06:14:43;;;;;;;8.00;7.30;;;;;;;21.32;63.28;99102.99;262784;1096;115111;-59
2021/07/11 06:19:46;;;;;;;9.17;7.80;;;;;;;21.43;63.45;99100.89;262901;1096;115026;-57
2021/07/11 06:24:50;;;;;;;9.25;8.00;;;;;;;21.59;63.34;99091.11;262477;1094;114789;-58
2021/07/11 06:29:54;;;;;;;31.05;20.60;;;;;;;21.82;63.60;99089.48;262766;1095;115039;-58
2021/07/11 06:34:58;;;;;;;12.10;10.20;;;;;;;22.11;63.40;99094.47;262606;1095;115680;-59
2021/07/11 06:40:03;;;;;;;18.85;9.23;;;;;;;22.33;63.14;99084.00;262717;1095;115288;-59
2021/07/11 06:45:09;;;;;;;15.77;9.60;;;;;;;22.59;63.60;99081.96;262537;1096;115214;-59
2021/07/11 06:50:14;;;;;;;13.10;10.35;;;;;;;22.82;62.91;99082.07;262568;1096;115154;-59
2021/07/11 06:55:18;;;;;;;12.03;10.23;;;;;;;23.01;62.40;99085.48;262598;1095;115186;-59
2021/07/11 07:00:22;;;;;;;8.20;7.40;;;;;;;23.08;61.95;99078.33;262740;1096;115034;-59
2021/07/11 07:05:25;;;;;;;8.55;7.68;;;;;;;23.17;61.64;99073.73;262824;1096;114307;-59
2021/07/11 07:10:29;;;;;;;18.45;12.85;;;;;;;23.26;61.59;99075.38;262708;1096;115104;-60
2021/07/11 07:15:33;;;;;;;8.53;7.48;;;;;;;23.36;61.36;99073.30;262629;1096;115310;-60
2021/07/11 07:20:37;;;;;;;9.83;7.63;;;;;;;23.42;61.37;99067.16;262762;1096;115270;-59
2021/07/11 07:25:40;;;;;;;9.18;7.35;;;;;;;23.43;60.89;99066.13;262505;1096;115061;-59
2021/07/11 07:30:44;;;;;;;9.95;7.48;;;;;;;23.44;60.93;99077.84;262740;1095;115128;-61
2021/07/11 07:35:52;;;;;;;8.13;7.30;;;;;;;23.47;61.06;99069.34;262734;1096;114669;-60
2021/07/11 07:40:55;;;;;;;13.77;9.57;;;;;;;23.50;61.03;99067.11;262649;1096;115780;-60
2021/07/11 07:45:59;;;;;;;7.20;5.43;;;;;;;23.55;61.05;99069.31;262628;1096;114947;-61
2021/07/11 07:51:03;;;;;;;9.80;6.60;;;;;;;23.62;61.15;99078.45;263144;1096;116147;-61
2021/07/11 07:56:06;;;;;;;7.00;5.85;;;;;;;23.68;61.18;99072.34;262655;1095;115323;-61
2021/07/11 08:01:10;;;;;;;13.10;9.15;;;;;;;23.76;61.36;99068.72;262553;1096;115561;-60
2021/07/11 08:06:16;;;;;;;12.73;8.03;;;;;;;23.89;61.84;99065.42;262960;1095;115501;-59
2021/07/11 08:11:20;;;;;;;11.15;6.20;;;;;;;23.98;61.60;99064.31;262127;1095;114879;-61
2021/07/11 08:16:24;;;;;;;11.75;7.48;;;;;;;24.05;61.58;99068.88;262912;1095;115280;-62
2021/07/11 08:21:33;;;;;;;10.33;7.10;;;;;;;24.12;61.55;99071.72;262799;1096;115169;-61
2021/07/11 08:26:37;;;;;;;8.03;7.20;;;;;;;24.22;61.96;99066.88;262628;1096;115039;-62
2021/07/11 08:31:41;;;;;;;11.68;8.18;;;;;;;24.28;61.87;99066.13;262768;1096;114987;-63
2021/07/11 08:36:45;;;;;;;6.20;5.60;;;;;;;24.36;61.28;99058.95;262622;1096;115121;-59
2021/07/11 08:41:49;;;;;;;7.48;6.18;;;;;;;24.37;61.07;99066.08;262693;1096;114819;-61
2021/07/11 08:46:53;;;;;;;8.70;7.83;;;;;;;24.38;60.96;99052.28;262824;1095;114419;-60
2021/07/11 08:52:00;;;;;;;9.43;7.50;;;;;;;24.40;61.06;99058.42;262687;1095;114878;-60
2021/07/11 08:57:10;;;;;;;11.63;6.43;;;;;;;24.45;61.25;99058.70;262796;1095;115065;-61
2021/07/11 09:02:14;;;;;;;10.20;8.55;;;;;;;24.48;61.17;99060.22;262625;1095;115058;-60
2021/07/11 09:07:22;;;;;;;8.80;7.78;;;;;;;24.54;61.17;99068.50;263077;1096;115376;-62
2021/07/11 09:12:27;;;;;;;9.03;7.27;;;;;;;24.62;60.95;99061.28;262605;1095;115744;-60
2021/07/11 09:17:35;;;;;;;6.93;6.23;;;;;;;24.68;60.82;99065.99;262560;1095;114904;-61
2021/07/11 09:22:39;;;;;;;13.18;7.35;;;;;;;24.72;61.16;99057.26;262766;1095;115408;-61
2021/07/11 09:27:43;;;;;;;12.33;7.43;;;;;;;24.79;61.13;99063.65;262547;1095;115136;-61
2021/07/11 09:32:53;;;;;;;12.10;7.27;;;;;;;24.84;61.36;99059.55;262197;1096;115100;-60
2021/07/11 09:38:00;;;;;;;7.73;6.97;;;;;;;24.82;60.86;99061.59;262425;1095;115406;-61
2021/07/11 09:43:12;;;;;;;106.93;89.17;;;;;;;24.89;61.23;99057.09;262369;1095;114907;-61
2021/07/11 09:48:16;;;;;;;18.77;15.93;;;;;;;24.92;61.14;99065.73;262523;1095;115375;-60
2021/07/11 09:53:23;;;;;;;18.28;13.00;;;;;;;24.92;61.01;99059.45;262652;1095;115900;-61
2021/07/11 09:58:32;;;;;;;17.43;10.30;;;;;;;24.95;61.48;99067.25;262654;1095;117370;-64
2021/07/11 10:03:35;;;;;;;16.20;10.00;;;;;;;24.94;61.44;99066.41;262832;1095;115137;-61
2021/07/11 10:08:40;;;;;;;7.63;5.63;;;;;;;24.92;60.95;99067.61;262570;1096;115529;-61
2021/07/11 10:13:43;;;;;;;;;;;;;;;24.94;61.24;99079.18;262227;1095;115320;-60
2021/07/11 10:18:55;;;;;;;10.33;7.87;;;;;;;24.92;61.22;99076.63;262495;1096;102321;-58
2021/07/11 10:24:00;;;;;;;9.60;6.93;;;;;;;24.98;61.46;99094.11;262448;1096;115603;-60
2021/07/11 10:29:19;;;;;;;20.20;10.53;;;;;;;25.04;61.20;99087.08;262596;1095;117004;-60
2021/07/11 10:34:33;;;;;;;9.63;7.87;;;;;;;25.22;61.62;99076.67;262623;1096;116422;-60
2021/07/11 10:39:37;;;;;;;9.90;7.97;;;;;;;25.33;61.79;99083.52;262845;1095;114709;-61
2021/07/11 10:44:41;;;;;;;13.03;11.25;;;;;;;25.46;61.66;99083.70;262835;1096;114520;-59
2021/07/11 10:49:51;;;;;;;9.00;8.10;;;;;;;25.67;61.55;99069.28;262595;1095;115282;-62
2021/07/11 10:54:57;;;;;;;8.30;7.50;;;;;;;25.81;60.87;99052.06;262402;1095;114661;-59
2021/07/11 11:00:30;;;;;;;11.27;7.00;;;;;;;25.80;60.55;99042.20;262866;1095;115308;-60
2021/07/11 11:05:42;;;;;;;9.27;6.53;;;;;;;25.84;60.64;99031.75;262512;1095;115509;-61
2021/07/11 12:45:29;;;;;;;21.38;12.23;;;;;;;25.32;62.03;99055.44;262442;1092;101599;-61
2021/07/11 12:50:44;;;;;;;18.20;9.58;;;;;;;25.36;61.79;99047.73;263355;1092;115130;-62
2021/07/11 13:56:10;;;;;;;32.45;18.15;;;;;;;24.93;62.25;99021.16;263260;1092;101842;-70
2021/07/11 14:42:18;;;;;;;16.28;14.08;;;;;;;24.97;62.38;98973.45;263563;1093;101626;-71
2021/07/11 14:47:21;;;;;;;11.10;9.95;;;;;;;25.08;62.43;98979.45;263241;1093;117131;-66
2021/07/11 14:52:25;;;;;;;33.95;29.73;;;;;;;25.19;62.41;98976.27;263122;1093;115371;-69
2021/07/11 14:57:32;;;;;;;21.43;18.57;;;;;;;25.36;62.60;98968.71;260957;1093;114158;-69
2021/07/11 16:25:29;;;;;;;6.55;4.85;;;;;;;23.25;63.41;99033.80;262834;1092;102969;-74
2021/07/11 16:30:34;;;;;;;7.48;4.53;;;;;;;23.24;63.28;99053.00;262570;1092;114766;-67
2021/07/11 16:35:38;;;;;;;30.93;23.83;;;;;;;23.22;63.51;99058.59;262743;1092;114274;-69
2021/07/11 17:02:39;;;;;;;13.40;8.45;;;;;;;22.75;64.16;99105.49;262723;1093;102898;-68
2021/07/11 17:07:43;;;;;;;13.53;7.97;;;;;;;22.65;64.58;99107.54;262877;1093;114319;-69
2021/07/11 18:25:29;;;;;;;10.30;5.25;;;;;;;20.95;65.94;98961.58;263623;1093;101401;-69
2021/07/11 18:30:33;;;;;;;6.78;4.65;;;;;;;20.83;66.62;98981.00;263279;1093;114896;-71
2021/07/11 18:35:37;;;;;;;9.03;5.10;;;;;;;20.75;66.86;98992.60;263208;1095;114742;-68
2021/07/11 18:40:41;;;;;;;;;;;;;;;20.76;67.07;98997.87;263174;1093;114159;-65
2021/07/11 18:45:45;;;;;;;8.85;6.20;;;;;;;20.82;67.47;99017.16;263266;1096;101389;-66
2021/07/11 18:50:49;;;;;;;8.38;6.58;;;;;;;20.89;67.67;99034.43;263236;1095;114431;-69
2021/07/11 18:55:54;;;;;;;10.73;7.60;;;;;;;20.97;67.77;99026.38;262961;1093;114437;-66
2021/07/11 19:00:57;;;;;;;14.90;8.58;;;;;;;21.08;68.18;99038.77;263092;1093;114326;-66
2021/07/11 19:06:01;;;;;;;13.08;8.13;;;;;;;21.17;68.08;99037.80;262743;1093;114855;-66
2021/07/11 19:11:05;;;;;;;15.30;9.40;;;;;;;21.23;67.93;99024.47;263240;1093;115468;-67
2021/07/11 19:16:08;;;;;;;15.08;9.03;;;;;;;21.34;68.30;99025.18;261890;1093;114952;-65
2021/07/11 19:21:12;;;;;;;14.40;7.90;;;;;;;21.32;67.97;99038.86;263174;1093;115309;-67
2021/07/11 19:26:16;;;;;;;10.57;7.27;;;;;;;21.36;68.13;99039.41;262982;1093;114595;-66
2021/07/11 19:31:20;;;;;;;14.78;9.85;;;;;;;21.42;68.46;99046.88;262938;1092;115235;-69
2021/07/11 19:36:24;;;;;;;15.23;11.28;;;;;;;21.45;68.83;99052.81;263035;1093;115414;-68
2021/07/11 19:41:28;;;;;;;16.13;11.75;;;;;;;21.43;68.30;99038.61;263251;1092;115344;-69
2021/07/11 19:46:32;;;;;;;12.80;9.30;;;;;;;21.45;68.47;99008.65;263237;1093;115068;-67
2021/07/11 19:51:36;;;;;;;14.50;10.33;;;;;;;21.50;68.49;99011.69;262219;1093;114488;-69
2021/07/11 19:56:41;;;;;;;14.17;10.63;;;;;;;21.49;68.60;99010.84;263096;1093;115582;-70
2021/07/11 20:01:48;;;;;;;16.13;11.43;;;;;;;21.49;68.26;99004.59;262992;1093;115012;-70
2021/07/11 20:06:51;;;;;;;15.53;11.73;;;;;;;21.41;68.42;99010.84;263298;1094;114704;-69
2021/07/11 20:11:55;;;;;;;15.45;10.73;;;;;;;21.33;68.28;98999.97;263256;1093;115507;-68
2021/07/11 20:17:10;;;;;;;12.70;10.27;;;;;;;21.28;68.48;99015.00;262751;1092;115289;-66
2021/07/11 20:22:14;;;;;;;14.73;10.90;;;;;;;21.26;68.77;99016.02;262959;1093;114672;-67
2021/07/11 20:27:18;;;;;;;19.38;13.33;;;;;;;21.30;68.69;99015.66;262777;1094;114649;-66
2021/07/11 20:32:22;;;;;;;20.30;12.33;;;;;;;21.27;68.72;99011.45;263089;1093;114762;-67
2021/07/11 20:37:25;;;;;;;15.95;11.13;;;;;;;21.29;68.76;99009.41;263007;1094;114752;-68
2021/07/11 20:42:29;;;;;;;16.43;12.75;;;;;;;21.32;68.95;99003.66;262559;1093;115252;-70
2021/07/11 20:47:32;;;;;;;18.88;13.23;;;;;;;21.40;69.22;98992.03;263285;1093;115072;-70
2021/07/11 20:52:37;;;;;;;19.00;12.75;;;;;;;21.39;69.08;99007.44;263253;1093;115202;-69
2021/07/11 20:57:40;;;;;;;17.08;12.65;;;;;;;21.40;69.33;99016.41;263204;1095;115117;-69
2021/07/11 21:02:44;;;;;;;18.38;13.33;;;;;;;21.46;69.33;99013.05;263147;1093;115323;-70
2021/07/11 21:07:48;;;;;;;17.50;13.83;;;;;;;21.41;69.23;99013.55;262673;1093;115275;-69
2021/07/11 21:12:51;;;;;;;20.23;12.70;;;;;;;21.41;69.12;99008.13;262927;1093;115409;-69
2021/07/11 21:17:55;;;;;;;15.75;11.75;;;;;;;21.36;69.12;98988.81;263079;1093;115215;-68
2021/07/11 21:22:59;;;;;;;15.20;11.98;;;;;;;21.34;69.13;98995.40;263003;1093;114586;-69
2021/07/11 21:28:03;;;;;;;15.18;11.75;;;;;;;21.29;69.12;98992.32;263213;1096;115877;-71
2021/07/11 21:33:07;;;;;;;;;;;;;;;21.21;69.02;99006.69;263235;1093;115853;-68
2021/07/11 21:38:10;;;;;;;12.90;8.90;;;;;;;21.14;69.14;99006.48;263104;1093;102397;-67
2021/07/11 21:43:14;;;;;;;12.50;9.53;;;;;;;21.14;69.33;99008.36;262961;1093;115085;-67
2021/07/11 21:48:18;;;;;;;17.35;10.95;;;;;;;21.09;69.45;99006.11;263034;1093;115107;-69
2021/07/11 21:53:22;;;;;;;12.15;9.00;;;;;;;21.07;69.46;99015.43;263250;1093;115830;-64
2021/07/11 21:58:25;;;;;;;13.65;9.53;;;;;;;21.07;69.48;99018.98;263197;1093;114821;-68
2021/07/11 22:03:29;;;;;;;18.75;10.30;;;;;;;21.09;69.56;99016.09;263298;1093;114855;-68
2021/07/11 22:08:34;;;;;;;14.85;10.35;;;;;;;21.08;69.64;99000.88;263194;1093;115129;-62
2021/07/11 22:13:41;;;;;;;13.23;8.57;;;;;;;21.02;69.42;99011.36;262319;1095;115011;-68
2021/07/11 22:18:46;;;;;;;;;;;;;;;21.02;69.61;99005.08;262694;1095;114942;-67
2021/07/11 22:23:50;;;;;;;15.63;10.73;;;;;;;20.97;69.55;98989.34;262915;1093;102605;-66
2021/07/11 22:28:54;;;;;;;;;;;;;;;20.94;69.67;98980.70;262926;1095;115292;-67
2021/07/11 22:33:58;;;;;;;17.67;11.60;;;;;;;20.86;69.71;98978.81;263246;1093;101339;-67
2021/07/11 22:39:02;;;;;;;16.98;10.65;;;;;;;20.79;69.45;98975.06;263108;1093;115535;-68
2021/07/11 22:44:09;;;;;;;11.58;9.50;;;;;;;20.79;69.77;98970.50;262702;1095;115103;-66
2021/07/11 22:49:13;;;;;;;17.20;11.10;;;;;;;20.80;69.95;98982.16;263016;1095;115228;-67
2021/07/11 22:54:17;;;;;;;15.40;11.28;;;;;;;20.78;69.90;98971.48;263232;1095;115071;-73
2021/07/11 22:59:21;;;;;;;16.73;12.50;;;;;;;20.74;69.84;98985.51;262761;1094;114999;-69
2021/07/11 23:04:25;;;;;;;16.33;11.28;;;;;;;20.72;70.00;98968.58;263135;1093;115038;-68
2021/07/11 23:09:29;;;;;;;17.90;11.88;;;;;;;20.73;70.10;98954.91;261749;1093;115645;-66
2021/07/11 23:14:33;;;;;;;;;;;;;;;20.75;70.24;98938.51;262550;1093;114753;-66
2021/07/11 23:19:38;;;;;;;15.47;12.17;;;;;;;20.70;69.98;98946.28;262946;1093;102755;-69
2021/07/11 23:24:43;;;;;;;13.77;11.20;;;;;;;20.63;69.94;98943.38;262702;1094;114713;-70
2021/07/11 23:29:48;;;;;;;12.13;10.03;;;;;;;20.58;69.90;98942.15;263030;1093;115003;-67
2021/07/11 23:34:52;;;;;;;13.00;9.55;;;;;;;20.56;70.07;98947.73;263089;1095;114735;-66
2021/07/11 23:39:55;;;;;;;11.70;9.40;;;;;;;20.54;70.05;98934.36;263167;1095;114967;-67
2021/07/11 23:44:59;;;;;;;19.48;9.73;;;;;;;20.55;69.76;98930.66;263119;1093;114910;-68
2021/07/11 23:50:06;;;;;;;14.18;9.98;;;;;;;20.50;69.98;98932.99;263134;1093;115494;-68
2021/07/11 23:55:12;;;;;;;11.67;7.67;;;;;;;20.42;69.96;98946.45;262661;1095;114885;-67
